INFORMACIÓN METAR y TAF
METAR FOR VYMD
ADDS - METARS form results

(0506 UTC 19 December 2018)
Data provider http://aviationweather.gov/metar/data/
 
METAR text: VYMD 190430Z 30004KT 5000 DZ BKN018 FEW020CB OVC100 20/20 Q1015
Conditions at: VYMD (MANDALAY , MM) observed 0430 UTC 19 December 2018
Temperature: 20.0°C (68°F)
Dewpoint: 20.0°C (68°F) [RH = 100%]
Pressure (altimeter): 29.97 inches Hg (1015.0 mb)
Winds: from the WNW (300 degrees) at 5 MPH (4 knots; 2.1 m/s)
Visibility: 3 miles ( 5 km)
Ceiling: 1800 feet AGL
Clouds: broken clouds at 1800 feet AGL
few clouds at 2000 feet AGL
overcast cloud deck at 10000 feet AGL
Weather: DZ  (moderate drizzle)

 MAPA DE AEROPUERTO

 INFORMACIÓN DE PISTA
Pista 17 Longitud 14003 ft Ancho 200 ft
Elevación 300 ft Umbral desplazado 0 ft Rumbo de pista 171
Pista 35 Longitud 14003 ft Ancho 200 ft
Elevación 300 ft Umbral desplazado 0 ft Rumbo de pista 351

 FRECUANCIAS DEL AEROPUERTO
Tipo APP Nombre APP Frecuencia 119.2 MHZ
Tipo GND Nombre GND Frecuencia 121.725 MHZ
Tipo TWR Nombre TWR Frecuencia 118.6 MHZ

 RADIO AYUDAS DEL AEROPUERTO
Tipo VOR-DME Nombre Mandalay Frecuencia 116300 KHZ
Tipo NDB Nombre Mandalay Frecuencia 259 KHZ



Powered by Virtual Airlines Manager [v2.6.2]